createdAt,value
2022-10-16T00:02:53.975Z,13.97
2022-10-16T00:07:54.743Z,13.91
2022-10-16T00:12:57.203Z,13.88
2022-10-16T00:17:59.566Z,13.83
2022-10-16T00:23:07.845Z,13.81
2022-10-16T00:28:08.807Z,13.77
2022-10-16T00:33:16.675Z,13.78
2022-10-16T00:38:17.575Z,13.81
2022-10-16T00:43:39.655Z,13.80
2022-10-16T00:48:42.262Z,13.78
2022-10-16T00:53:43.195Z,13.79
2022-10-16T00:58:48.782Z,13.95
2022-10-16T01:03:52.289Z,14.01
2022-10-16T01:09:17.066Z,14.09
2022-10-16T01:14:24.384Z,14.21
2022-10-16T01:19:50.793Z,14.19
2022-10-16T01:24:52.573Z,14.28
2022-10-16T01:30:01.313Z,14.38
2022-10-16T01:35:11.507Z,14.41
2022-10-16T01:40:15.332Z,14.44
2022-10-16T01:45:21.971Z,14.51
2022-10-16T01:50:23.637Z,14.55
2022-10-16T01:55:29.132Z,14.56
2022-10-16T02:00:32.533Z,14.60
2022-10-16T02:05:42.031Z,14.59
2022-10-16T02:10:43.217Z,14.64
2022-10-16T02:15:50.103Z,14.67
2022-10-16T02:20:54.905Z,14.64
2022-10-16T02:26:01.882Z,14.60
2022-10-16T02:31:13.518Z,14.74
2022-10-16T02:36:14.792Z,14.69
2022-10-16T02:41:19.940Z,14.75
2022-10-16T02:46:22.183Z,14.79
2022-10-16T02:51:22.942Z,14.86
2022-10-16T02:56:24.340Z,14.83
2022-10-16T03:01:26.864Z,14.82
2022-10-16T03:06:27.714Z,14.90
2022-10-16T03:11:29.195Z,14.89
2022-10-16T03:16:31.551Z,14.83
2022-10-16T03:21:32.352Z,14.77
2022-10-16T03:26:33.265Z,14.73
2022-10-16T03:31:35.748Z,14.61
2022-10-16T03:36:36.641Z,14.56
2022-10-16T03:41:37.412Z,14.54
2022-10-16T03:46:39.671Z,14.49
2022-10-16T03:51:40.451Z,14.43
2022-10-16T03:56:41.267Z,14.36
2022-10-16T04:01:43.464Z,14.36
2022-10-16T04:06:44.244Z,14.35
2022-10-16T04:11:45.049Z,14.45
2022-10-16T04:16:47.161Z,14.37
2022-10-16T04:21:47.977Z,14.38
2022-10-16T04:26:48.797Z,14.42
2022-10-16T04:31:51.013Z,14.45
2022-10-16T04:36:51.981Z,14.51
2022-10-16T04:41:52.756Z,14.46
2022-10-16T04:46:54.892Z,14.38
2022-10-16T04:51:55.668Z,14.39
2022-10-16T04:56:56.540Z,14.40
2022-10-16T05:01:58.799Z,14.39
2022-10-16T05:06:59.594Z,14.42
2022-10-16T05:12:00.397Z,14.49
2022-10-16T05:17:02.900Z,14.39
2022-10-16T05:22:03.721Z,14.37
2022-10-16T05:27:04.681Z,14.36
2022-10-16T05:32:06.814Z,14.37
2022-10-16T05:37:07.734Z,14.37
2022-10-16T05:42:08.659Z,14.35
2022-10-16T05:47:11.748Z,14.38
2022-10-16T05:52:13.607Z,14.51
2022-10-16T05:57:14.535Z,14.57
2022-10-16T06:02:17.008Z,14.54
2022-10-16T06:07:17.969Z,14.62
2022-10-16T06:12:19.265Z,14.84
2022-10-16T06:17:21.440Z,14.81
2022-10-16T06:22:22.427Z,14.80
2022-10-16T06:27:23.337Z,14.95
2022-10-16T06:32:25.631Z,15.09
2022-10-16T06:37:27.070Z,15.19
2022-10-16T06:42:28.382Z,15.34
2022-10-16T06:47:32.027Z,15.57
2022-10-16T06:52:32.892Z,15.89
2022-10-16T06:57:33.786Z,16.19
2022-10-16T07:02:36.025Z,16.24
2022-10-16T07:07:36.853Z,16.22
2022-10-16T07:12:37.705Z,16.27
2022-10-16T07:17:39.875Z,16.47
2022-10-16T07:22:40.801Z,16.79
2022-10-16T07:27:41.625Z,16.95
2022-10-16T07:32:43.760Z,16.95
2022-10-16T07:37:46.773Z,16.94
2022-10-16T07:42:47.558Z,16.92
2022-10-16T07:47:49.721Z,16.99
2022-10-16T07:52:50.508Z,17.03
2022-10-16T07:57:51.427Z,17.10
2022-10-16T08:02:53.575Z,17.35
2022-10-16T08:07:54.349Z,17.78
2022-10-16T08:12:55.591Z,17.88
2022-10-16T08:17:59.847Z,18.07
2022-10-16T08:23:01.045Z,17.94
2022-10-16T08:28:01.892Z,17.86
2022-10-16T08:33:04.699Z,18.02
2022-10-16T08:38:05.628Z,18.33
2022-10-16T08:43:29.633Z,18.71
2022-10-16T08:48:38.854Z,18.84
2022-10-16T08:53:45.273Z,18.73
2022-10-16T09:04:09.649Z,18.78
2022-10-16T09:09:33.538Z,18.63
2022-10-16T09:14:49.331Z,18.63
2022-10-16T09:19:56.366Z,18.62
2022-10-16T09:24:57.427Z,18.84
2022-10-16T09:29:59.829Z,19.22
2022-10-16T09:35:03.127Z,19.45
2022-10-16T09:40:07.478Z,19.44
2022-10-16T09:45:25.074Z,19.84
2022-10-16T09:50:29.578Z,20.14
2022-10-16T09:56:01.209Z,20.21
2022-10-16T10:01:03.412Z,20.35
2022-10-16T10:06:19.518Z,20.66
2022-10-16T10:11:20.412Z,20.97
2022-10-16T10:16:26.028Z,20.93
2022-10-16T10:21:28.272Z,20.84
2022-10-16T10:26:34.403Z,20.69
2022-10-16T10:31:45.155Z,20.58
2022-10-16T10:36:54.454Z,20.82
2022-10-16T10:42:16.333Z,21.36
2022-10-16T10:47:29.172Z,21.64
2022-10-16T10:52:45.390Z,22.32
2022-10-16T10:57:58.985Z,22.41
2022-10-16T11:03:09.586Z,22.51
2022-10-16T11:08:18.038Z,21.94
2022-10-16T11:13:26.810Z,22.12
2022-10-16T11:18:34.602Z,22.05
2022-10-16T11:23:43.572Z,22.04
2022-10-16T11:28:49.813Z,22.40
2022-10-16T11:33:56.918Z,22.26
2022-10-16T11:39:05.256Z,22.08
2022-10-16T11:44:20.591Z,22.32
2022-10-16T11:49:26.293Z,22.13
2022-10-16T11:54:34.542Z,22.05
2022-10-16T11:59:43.442Z,22.16
2022-10-16T12:04:47.998Z,22.16
2022-10-16T12:09:50.588Z,22.23
2022-10-16T12:15:22.464Z,22.06
2022-10-16T12:20:28.315Z,22.37
2022-10-16T12:25:32.629Z,22.50
2022-10-16T12:30:36.552Z,22.23
2022-10-16T12:36:29.339Z,22.24
2022-10-16T12:42:04.028Z,22.24
2022-10-16T12:47:07.574Z,22.23
2022-10-16T12:52:28.454Z,22.44
2022-10-16T12:58:12.192Z,22.47
2022-10-16T13:03:51.600Z,22.65
2022-10-16T13:09:16.882Z,22.39
2022-10-16T13:20:01.558Z,22.34
2022-10-16T13:25:19.884Z,22.32
2022-10-16T13:40:35.634Z,22.20
2022-10-16T13:45:37.937Z,22.08
2022-10-16T13:50:38.790Z,21.82
2022-10-16T13:55:39.723Z,21.22
2022-10-16T14:00:43.498Z,21.47
2022-10-16T14:05:49.423Z,21.85
2022-10-16T14:10:52.898Z,21.84
2022-10-16T14:15:55.981Z,21.75
2022-10-16T14:21:01.515Z,21.67
2022-10-16T14:26:15.342Z,21.68
2022-10-16T14:31:30.761Z,21.66
2022-10-16T14:36:32.540Z,21.54
2022-10-16T14:41:35.720Z,21.50
2022-10-16T14:46:40.019Z,21.44
2022-10-16T14:51:42.001Z,21.33
2022-10-16T14:56:50.811Z,21.22
2022-10-16T15:01:53.201Z,21.03
2022-10-16T15:06:54.001Z,20.91
2022-10-16T15:11:54.920Z,20.82
2022-10-16T15:16:57.131Z,20.70
2022-10-16T15:21:58.263Z,20.56
2022-10-16T15:27:01.253Z,20.32
2022-10-16T15:32:03.536Z,20.13
2022-10-16T15:37:05.638Z,20.05
2022-10-16T15:42:07.050Z,19.90
2022-10-16T15:47:10.138Z,19.77
2022-10-16T15:52:11.042Z,19.59
2022-10-16T15:57:11.869Z,19.54
2022-10-16T16:02:14.064Z,19.36
2022-10-16T16:07:15.325Z,19.23
2022-10-16T16:12:16.143Z,18.97
2022-10-16T16:17:18.740Z,18.80
2022-10-16T16:22:19.835Z,18.73
2022-10-16T16:27:20.839Z,18.51
2022-10-16T16:32:23.906Z,18.35
2022-10-16T16:37:25.071Z,18.11
2022-10-16T16:42:26.793Z,17.92
2022-10-16T16:47:29.276Z,17.77
2022-10-16T16:52:31.387Z,17.68
2022-10-16T16:57:32.330Z,17.54
2022-10-16T17:02:34.802Z,17.43
2022-10-16T17:07:36.498Z,17.27
2022-10-16T17:12:37.388Z,17.15
2022-10-16T17:17:39.690Z,17.00
2022-10-16T17:22:41.619Z,16.86
2022-10-16T17:27:42.414Z,16.76
2022-10-16T17:32:44.637Z,16.69
2022-10-16T17:37:45.545Z,16.63
2022-10-16T17:42:46.382Z,16.51
2022-10-16T17:47:48.634Z,16.45
2022-10-16T17:52:49.444Z,16.40
2022-10-16T17:57:50.336Z,16.40
2022-10-16T18:02:52.595Z,16.29
2022-10-16T18:07:53.579Z,16.36
2022-10-16T18:12:54.454Z,16.27
2022-10-16T18:17:56.723Z,16.37
2022-10-16T18:22:57.689Z,16.39
2022-10-16T18:27:58.513Z,16.41
2022-10-16T18:33:00.741Z,16.42
2022-10-16T18:38:01.649Z,16.34
2022-10-16T18:43:02.543Z,16.32
2022-10-16T18:48:05.138Z,16.30
2022-10-16T18:53:05.962Z,16.28
2022-10-16T18:58:06.949Z,16.09
2022-10-16T19:03:09.239Z,15.99
2022-10-16T19:08:10.085Z,15.80
2022-10-16T19:13:11.189Z,15.71
2022-10-16T19:18:13.508Z,15.75
2022-10-16T19:23:14.630Z,15.74
2022-10-16T19:28:15.530Z,15.79
2022-10-16T19:33:17.832Z,15.78
2022-10-16T19:38:18.677Z,15.78
2022-10-16T19:43:19.541Z,15.74
2022-10-16T19:53:29.276Z,15.91
2022-10-16T19:58:30.210Z,15.90
2022-10-16T20:03:32.419Z,15.86
2022-10-16T20:08:33.586Z,15.87
2022-10-16T20:13:38.360Z,15.85
2022-10-16T20:18:43.133Z,15.90
2022-10-16T20:23:44.734Z,15.81
2022-10-16T20:28:45.895Z,15.82
2022-10-16T20:33:48.148Z,15.69
2022-10-16T20:38:49.091Z,15.72
2022-10-16T20:43:53.199Z,15.81
2022-10-16T20:49:02.340Z,15.80
2022-10-16T20:54:12.904Z,15.73
2022-10-16T20:59:13.912Z,15.71
2022-10-16T21:04:17.093Z,15.55
2022-10-16T21:09:18.140Z,15.43
2022-10-16T21:14:18.969Z,15.33
2022-10-16T21:19:21.092Z,15.20
2022-10-16T21:24:22.030Z,15.14
2022-10-16T21:29:22.808Z,15.06
2022-10-16T21:34:25.126Z,14.99
2022-10-16T21:39:25.937Z,14.86
2022-10-16T21:44:26.733Z,14.74
2022-10-16T21:49:29.070Z,14.68
2022-10-16T21:54:29.915Z,14.54
2022-10-16T21:59:30.879Z,14.57
2022-10-16T22:04:33.179Z,14.55
2022-10-16T22:09:33.995Z,14.52
2022-10-16T22:14:34.847Z,14.49
2022-10-16T22:19:37.074Z,14.48
2022-10-16T22:24:38.425Z,14.41
2022-10-16T22:29:39.217Z,14.41
2022-10-16T22:34:41.416Z,14.31
2022-10-16T22:39:42.196Z,14.25
2022-10-16T22:44:42.973Z,14.15
2022-10-16T22:49:45.117Z,14.11
2022-10-16T22:54:45.903Z,14.05
2022-10-16T22:59:48.468Z,14.01
2022-10-16T23:04:50.840Z,13.93
2022-10-16T23:09:51.677Z,13.93
2022-10-16T23:14:52.572Z,13.90
2022-10-16T23:19:54.722Z,13.80
2022-10-16T23:24:55.552Z,13.83
2022-10-16T23:29:56.443Z,13.86
2022-10-16T23:34:58.578Z,13.89
2022-10-16T23:39:59.352Z,13.80
2022-10-16T23:45:00.328Z,13.75
2022-10-16T23:50:02.637Z,13.67
2022-10-16T23:55:03.622Z,13.63
